sensor_id;sensor_type;location;lat;lon;timestamp;P1;durP1;ratioP1;P2;durP2;ratioP2
70729;SDS011;58315;53.336;55.932;2023-04-24T00:01:20;11.45;;;4.30;;
70729;SDS011;58315;53.336;55.932;2023-04-24T00:03:46;11.15;;;4.57;;
70729;SDS011;58315;53.336;55.932;2023-04-24T00:06:12;8.77;;;4.57;;
70729;SDS011;58315;53.336;55.932;2023-04-24T00:08:38;8.77;;;3.88;;
70729;SDS011;58315;53.336;55.932;2023-04-24T00:11:04;8.95;;;4.13;;
70729;SDS011;58315;53.336;55.932;2023-04-24T00:13:30;8.30;;;4.50;;
70729;SDS011;58315;53.336;55.932;2023-04-24T00:15:57;6.13;;;3.65;;
70729;SDS011;58315;53.336;55.932;2023-04-24T00:18:23;7.55;;;3.53;;
70729;SDS011;58315;53.336;55.932;2023-04-24T00:20:49;8.45;;;4.10;;
70729;SDS011;58315;53.336;55.932;2023-04-24T00:23:15;10.98;;;4.35;;
70729;SDS011;58315;53.336;55.932;2023-04-24T00:25:41;7.32;;;4.03;;
70729;SDS011;58315;53.336;55.932;2023-04-24T00:28:07;14.63;;;4.03;;
70729;SDS011;58315;53.336;55.932;2023-04-24T00:30:34;12.88;;;4.35;;
70729;SDS011;58315;53.336;55.932;2023-04-24T00:33:00;9.57;;;4.28;;
70729;SDS011;58315;53.336;55.932;2023-04-24T00:35:26;7.95;;;3.95;;
70729;SDS011;58315;53.336;55.932;2023-04-24T00:37:52;9.10;;;4.07;;
70729;SDS011;58315;53.336;55.932;2023-04-24T00:40:18;8.57;;;3.85;;
70729;SDS011;58315;53.336;55.932;2023-04-24T00:42:45;7.68;;;4.22;;
70729;SDS011;58315;53.336;55.932;2023-04-24T00:45:12;10.15;;;4.22;;
70729;SDS011;58315;53.336;55.932;2023-04-24T00:47:38;8.93;;;4.22;;
70729;SDS011;58315;53.336;55.932;2023-04-24T00:50:05;8.90;;;4.50;;
70729;SDS011;58315;53.336;55.932;2023-04-24T00:52:32;14.27;;;4.18;;
70729;SDS011;58315;53.336;55.932;2023-04-24T00:54:58;8.73;;;4.40;;
70729;SDS011;58315;53.336;55.932;2023-04-24T00:57:26;10.82;;;4.43;;
70729;SDS011;58315;53.336;55.932;2023-04-24T00:59:52;10.43;;;4.45;;
70729;SDS011;58315;53.336;55.932;2023-04-24T01:02:19;8.90;;;4.22;;
70729;SDS011;58315;53.336;55.932;2023-04-24T01:04:49;8.93;;;3.97;;
70729;SDS011;58315;53.336;55.932;2023-04-24T01:07:17;7.63;;;3.92;;
70729;SDS011;58315;53.336;55.932;2023-04-24T01:09:46;9.05;;;4.18;;
70729;SDS011;58315;53.336;55.932;2023-04-24T01:12:14;10.07;;;4.00;;
70729;SDS011;58315;53.336;55.932;2023-04-24T01:14:41;9.90;;;3.55;;
70729;SDS011;58315;53.336;55.932;2023-04-24T01:17:08;10.13;;;4.28;;
70729;SDS011;58315;53.336;55.932;2023-04-24T01:19:34;7.78;;;4.03;;
70729;SDS011;58315;53.336;55.932;2023-04-24T01:22:08;9.98;;;4.03;;
70729;SDS011;58315;53.336;55.932;2023-04-24T01:24:36;9.13;;;4.22;;
70729;SDS011;58315;53.336;55.932;2023-04-24T01:27:04;9.32;;;4.65;;
70729;SDS011;58315;53.336;55.932;2023-04-24T01:29:30;10.52;;;4.30;;
70729;SDS011;58315;53.336;55.932;2023-04-24T01:31:56;10.45;;;5.30;;
70729;SDS011;58315;53.336;55.932;2023-04-24T01:34:24;13.50;;;5.07;;
70729;SDS011;58315;53.336;55.932;2023-04-24T01:36:51;11.20;;;4.63;;
70729;SDS011;58315;53.336;55.932;2023-04-24T01:39:16;10.63;;;4.43;;
70729;SDS011;58315;53.336;55.932;2023-04-24T01:41:42;19.02;;;4.40;;
70729;SDS011;58315;53.336;55.932;2023-04-24T01:44:08;9.00;;;4.60;;
70729;SDS011;58315;53.336;55.932;2023-04-24T01:46:35;9.48;;;4.07;;
70729;SDS011;58315;53.336;55.932;2023-04-24T01:49:03;7.95;;;3.80;;
70729;SDS011;58315;53.336;55.932;2023-04-24T01:51:29;14.80;;;4.93;;
70729;SDS011;58315;53.336;55.932;2023-04-24T01:53:56;12.00;;;4.38;;
70729;SDS011;58315;53.336;55.932;2023-04-24T01:56:22;8.05;;;3.85;;
70729;SDS011;58315;53.336;55.932;2023-04-24T01:58:52;10.18;;;4.10;;
70729;SDS011;58315;53.336;55.932;2023-04-24T02:01:20;12.93;;;4.50;;
70729;SDS011;58315;53.336;55.932;2023-04-24T02:03:47;16.63;;;4.93;;
70729;SDS011;58315;53.336;55.932;2023-04-24T02:06:13;10.77;;;4.85;;
70729;SDS011;58315;53.336;55.932;2023-04-24T02:08:40;10.23;;;4.55;;
70729;SDS011;58315;53.336;55.932;2023-04-24T02:11:06;8.52;;;4.43;;
70729;SDS011;58315;53.336;55.932;2023-04-24T02:13:32;13.63;;;4.50;;
70729;SDS011;58315;53.336;55.932;2023-04-24T02:16:00;8.73;;;4.15;;
70729;SDS011;58315;53.336;55.932;2023-04-24T02:18:46;8.32;;;4.38;;
70729;SDS011;58315;53.336;55.932;2023-04-24T02:21:12;9.75;;;4.05;;
70729;SDS011;58315;53.336;55.932;2023-04-24T02:23:38;8.15;;;4.03;;
70729;SDS011;58315;53.336;55.932;2023-04-24T02:26:05;12.13;;;5.22;;
70729;SDS011;58315;53.336;55.932;2023-04-24T02:28:31;9.85;;;4.28;;
70729;SDS011;58315;53.336;55.932;2023-04-24T02:30:57;10.02;;;4.13;;
70729;SDS011;58315;53.336;55.932;2023-04-24T02:33:24;10.07;;;4.28;;
70729;SDS011;58315;53.336;55.932;2023-04-24T02:35:50;10.60;;;3.90;;
70729;SDS011;58315;53.336;55.932;2023-04-24T02:38:16;9.23;;;4.32;;
70729;SDS011;58315;53.336;55.932;2023-04-24T02:40:43;6.68;;;4.00;;
70729;SDS011;58315;53.336;55.932;2023-04-24T02:43:09;13.00;;;4.55;;
70729;SDS011;58315;53.336;55.932;2023-04-24T02:45:37;8.27;;;3.80;;
70729;SDS011;58315;53.336;55.932;2023-04-24T02:48:04;9.90;;;4.75;;
70729;SDS011;58315;53.336;55.932;2023-04-24T02:50:30;13.73;;;4.00;;
70729;SDS011;58315;53.336;55.932;2023-04-24T02:52:57;11.57;;;4.03;;
70729;SDS011;58315;53.336;55.932;2023-04-24T02:55:23;11.35;;;4.32;;
70729;SDS011;58315;53.336;55.932;2023-04-24T02:57:49;9.75;;;4.38;;
70729;SDS011;58315;53.336;55.932;2023-04-24T03:00:15;23.55;;;5.18;;
70729;SDS011;58315;53.336;55.932;2023-04-24T03:02:41;10.68;;;4.32;;
70729;SDS011;58315;53.336;55.932;2023-04-24T03:05:08;22.90;;;5.20;;
70729;SDS011;58315;53.336;55.932;2023-04-24T03:07:34;10.27;;;5.13;;
70729;SDS011;58315;53.336;55.932;2023-04-24T03:10:00;7.93;;;3.92;;
70729;SDS011;58315;53.336;55.932;2023-04-24T03:12:27;17.23;;;4.75;;
70729;SDS011;58315;53.336;55.932;2023-04-24T03:14:53;12.50;;;4.78;;
70729;SDS011;58315;53.336;55.932;2023-04-24T03:17:19;12.30;;;5.20;;
70729;SDS011;58315;53.336;55.932;2023-04-24T03:19:45;9.20;;;4.20;;
70729;SDS011;58315;53.336;55.932;2023-04-24T03:22:12;10.75;;;4.65;;
70729;SDS011;58315;53.336;55.932;2023-04-24T03:24:39;8.60;;;4.72;;
70729;SDS011;58315;53.336;55.932;2023-04-24T03:27:06;29.13;;;5.18;;
70729;SDS011;58315;53.336;55.932;2023-04-24T03:29:49;10.57;;;4.63;;
70729;SDS011;58315;53.336;55.932;2023-04-24T03:32:24;18.90;;;4.30;;
70729;SDS011;58315;53.336;55.932;2023-04-24T03:34:51;11.57;;;4.63;;
70729;SDS011;58315;53.336;55.932;2023-04-24T03:37:17;12.05;;;4.80;;
70729;SDS011;58315;53.336;55.932;2023-04-24T03:39:50;14.05;;;4.38;;
70729;SDS011;58315;53.336;55.932;2023-04-24T03:42:20;6.72;;;4.03;;
70729;SDS011;58315;53.336;55.932;2023-04-24T03:44:53;9.57;;;4.40;;
70729;SDS011;58315;53.336;55.932;2023-04-24T03:47:23;8.73;;;3.85;;
70729;SDS011;58315;53.336;55.932;2023-04-24T03:49:49;16.65;;;4.13;;
70729;SDS011;58315;53.336;55.932;2023-04-24T03:52:16;14.90;;;6.18;;
70729;SDS011;58315;53.336;55.932;2023-04-24T03:54:43;13.10;;;4.28;;
70729;SDS011;58315;53.336;55.932;2023-04-24T03:57:10;8.10;;;4.03;;
70729;SDS011;58315;53.336;55.932;2023-04-24T03:59:41;15.00;;;4.20;;
70729;SDS011;58315;53.336;55.932;2023-04-24T04:02:15;9.98;;;3.88;;
70729;SDS011;58315;53.336;55.932;2023-04-24T04:04:42;8.88;;;3.78;;
70729;SDS011;58315;53.336;55.932;2023-04-24T04:07:08;10.32;;;3.40;;
70729;SDS011;58315;53.336;55.932;2023-04-24T04:09:34;10.90;;;3.63;;
70729;SDS011;58315;53.336;55.932;2023-04-24T04:12:00;9.50;;;3.47;;
70729;SDS011;58315;53.336;55.932;2023-04-24T04:14:27;10.80;;;3.95;;
70729;SDS011;58315;53.336;55.932;2023-04-24T04:16:53;11.40;;;3.63;;
70729;SDS011;58315;53.336;55.932;2023-04-24T04:19:19;6.13;;;3.10;;
70729;SDS011;58315;53.336;55.932;2023-04-24T04:21:46;6.00;;;3.08;;
70729;SDS011;58315;53.336;55.932;2023-04-24T04:24:31;9.70;;;3.40;;
70729;SDS011;58315;53.336;55.932;2023-04-24T04:26:58;6.07;;;3.35;;
70729;SDS011;58315;53.336;55.932;2023-04-24T04:29:33;12.70;;;3.20;;
70729;SDS011;58315;53.336;55.932;2023-04-24T04:32:01;7.82;;;3.58;;
70729;SDS011;58315;53.336;55.932;2023-04-24T04:34:28;7.35;;;3.30;;
70729;SDS011;58315;53.336;55.932;2023-04-24T04:36:55;7.13;;;2.85;;
70729;SDS011;58315;53.336;55.932;2023-04-24T04:39:41;8.57;;;3.47;;
70729;SDS011;58315;53.336;55.932;2023-04-24T04:42:15;8.63;;;3.15;;
70729;SDS011;58315;53.336;55.932;2023-04-24T04:44:43;16.63;;;3.17;;
70729;SDS011;58315;53.336;55.932;2023-04-24T04:47:15;15.70;;;3.17;;
70729;SDS011;58315;53.336;55.932;2023-04-24T04:49:43;6.65;;;3.30;;
70729;SDS011;58315;53.336;55.932;2023-04-24T04:52:16;10.23;;;3.25;;
70729;SDS011;58315;53.336;55.932;2023-04-24T04:54:45;6.47;;;2.90;;
70729;SDS011;58315;53.336;55.932;2023-04-24T04:57:12;9.23;;;2.80;;
70729;SDS011;58315;53.336;55.932;2023-04-24T04:59:39;8.93;;;2.80;;
70729;SDS011;58315;53.336;55.932;2023-04-24T05:02:10;8.02;;;3.00;;
70729;SDS011;58315;53.336;55.932;2023-04-24T05:04:37;7.50;;;3.10;;
70729;SDS011;58315;53.336;55.932;2023-04-24T05:07:03;8.10;;;2.72;;
70729;SDS011;58315;53.336;55.932;2023-04-24T05:09:32;7.25;;;2.70;;
70729;SDS011;58315;53.336;55.932;2023-04-24T05:12:03;7.75;;;3.00;;
70729;SDS011;58315;53.336;55.932;2023-04-24T05:14:34;8.15;;;2.80;;
70729;SDS011;58315;53.336;55.932;2023-04-24T05:17:00;17.27;;;3.28;;
70729;SDS011;58315;53.336;55.932;2023-04-24T05:19:26;8.10;;;2.83;;
70729;SDS011;58315;53.336;55.932;2023-04-24T05:21:53;10.95;;;3.13;;
70729;SDS011;58315;53.336;55.932;2023-04-24T05:24:19;15.30;;;3.03;;
70729;SDS011;58315;53.336;55.932;2023-04-24T05:27:03;18.27;;;3.30;;
70729;SDS011;58315;53.336;55.932;2023-04-24T05:29:38;7.53;;;2.50;;
70729;SDS011;58315;53.336;55.932;2023-04-24T05:32:05;11.07;;;2.50;;
70729;SDS011;58315;53.336;55.932;2023-04-24T05:34:32;5.95;;;2.38;;
70729;SDS011;58315;53.336;55.932;2023-04-24T05:36:58;11.95;;;2.63;;
70729;SDS011;58315;53.336;55.932;2023-04-24T05:39:25;6.35;;;2.78;;
70729;SDS011;58315;53.336;55.932;2023-04-24T05:41:51;8.98;;;4.05;;
70729;SDS011;58315;53.336;55.932;2023-04-24T05:44:17;29.33;;;12.23;;
70729;SDS011;58315;53.336;55.932;2023-04-24T05:46:43;26.27;;;2.78;;
70729;SDS011;58315;53.336;55.932;2023-04-24T05:49:10;6.20;;;2.33;;
70729;SDS011;58315;53.336;55.932;2023-04-24T05:51:36;5.60;;;2.20;;
70729;SDS011;58315;53.336;55.932;2023-04-24T05:54:05;9.70;;;2.33;;
70729;SDS011;58315;53.336;55.932;2023-04-24T05:56:31;7.90;;;2.13;;
70729;SDS011;58315;53.336;55.932;2023-04-24T05:58:59;4.97;;;2.38;;
70729;SDS011;58315;53.336;55.932;2023-04-24T06:01:25;6.97;;;2.60;;
70729;SDS011;58315;53.336;55.932;2023-04-24T06:04:02;6.65;;;2.35;;
70729;SDS011;58315;53.336;55.932;2023-04-24T06:06:30;5.35;;;2.10;;
70729;SDS011;58315;53.336;55.932;2023-04-24T06:08:57;8.15;;;2.10;;
70729;SDS011;58315;53.336;55.932;2023-04-24T06:11:25;6.90;;;2.47;;
70729;SDS011;58315;53.336;55.932;2023-04-24T06:13:51;4.85;;;2.38;;
70729;SDS011;58315;53.336;55.932;2023-04-24T06:16:47;5.55;;;2.35;;
70729;SDS011;58315;53.336;55.932;2023-04-24T06:19:25;18.77;;;2.90;;
70729;SDS011;58315;53.336;55.932;2023-04-24T06:21:51;6.25;;;2.70;;
70729;SDS011;58315;53.336;55.932;2023-04-24T06:24:17;6.72;;;2.75;;
70729;SDS011;58315;53.336;55.932;2023-04-24T06:26:43;4.97;;;2.33;;
70729;SDS011;58315;53.336;55.932;2023-04-24T06:29:09;9.07;;;2.47;;
70729;SDS011;58315;53.336;55.932;2023-04-24T06:31:35;9.70;;;2.40;;
70729;SDS011;58315;53.336;55.932;2023-04-24T06:34:03;5.15;;;2.35;;
70729;SDS011;58315;53.336;55.932;2023-04-24T06:36:29;6.00;;;2.53;;
70729;SDS011;58315;53.336;55.932;2023-04-24T06:38:56;7.40;;;2.50;;
70729;SDS011;58315;53.336;55.932;2023-04-24T06:41:23;4.07;;;2.20;;
70729;SDS011;58315;53.336;55.932;2023-04-24T06:43:49;5.25;;;2.10;;
70729;SDS011;58315;53.336;55.932;2023-04-24T06:46:15;7.93;;;2.22;;
70729;SDS011;58315;53.336;55.932;2023-04-24T06:48:41;5.70;;;2.13;;
70729;SDS011;58315;53.336;55.932;2023-04-24T06:51:07;10.48;;;2.58;;
70729;SDS011;58315;53.336;55.932;2023-04-24T06:53:33;8.52;;;2.10;;
70729;SDS011;58315;53.336;55.932;2023-04-24T06:55:59;9.80;;;2.30;;
70729;SDS011;58315;53.336;55.932;2023-04-24T06:58:26;4.75;;;2.10;;
70729;SDS011;58315;53.336;55.932;2023-04-24T07:00:52;5.63;;;1.73;;
70729;SDS011;58315;53.336;55.932;2023-04-24T07:03:18;7.35;;;1.73;;
70729;SDS011;58315;53.336;55.932;2023-04-24T07:05:44;4.13;;;1.80;;
70729;SDS011;58315;53.336;55.932;2023-04-24T07:08:11;9.10;;;2.03;;
70729;SDS011;58315;53.336;55.932;2023-04-24T07:10:38;4.00;;;2.08;;
70729;SDS011;58315;53.336;55.932;2023-04-24T07:13:04;3.75;;;1.80;;
70729;SDS011;58315;53.336;55.932;2023-04-24T07:15:32;3.20;;;1.83;;
70729;SDS011;58315;53.336;55.932;2023-04-24T07:17:58;4.70;;;2.00;;
70729;SDS011;58315;53.336;55.932;2023-04-24T07:20:24;4.20;;;1.60;;
70729;SDS011;58315;53.336;55.932;2023-04-24T07:22:50;10.10;;;2.10;;
70729;SDS011;58315;53.336;55.932;2023-04-24T07:25:17;7.88;;;1.88;;
70729;SDS011;58315;53.336;55.932;2023-04-24T07:27:43;3.70;;;1.88;;
70729;SDS011;58315;53.336;55.932;2023-04-24T07:30:09;7.88;;;1.85;;
70729;SDS011;58315;53.336;55.932;2023-04-24T07:32:38;4.88;;;1.88;;
70729;SDS011;58315;53.336;55.932;2023-04-24T07:35:05;8.23;;;1.97;;
70729;SDS011;58315;53.336;55.932;2023-04-24T07:37:31;9.93;;;2.00;;
70729;SDS011;58315;53.336;55.932;2023-04-24T07:39:57;7.32;;;2.03;;
70729;SDS011;58315;53.336;55.932;2023-04-24T07:42:23;5.35;;;1.70;;
70729;SDS011;58315;53.336;55.932;2023-04-24T07:44:49;7.22;;;2.05;;
70729;SDS011;58315;53.336;55.932;2023-04-24T07:47:16;8.63;;;1.80;;
70729;SDS011;58315;53.336;55.932;2023-04-24T07:49:43;5.30;;;1.55;;
70729;SDS011;58315;53.336;55.932;2023-04-24T07:52:08;16.20;;;1.40;;
70729;SDS011;58315;53.336;55.932;2023-04-24T07:54:35;19.33;;;1.48;;
70729;SDS011;58315;53.336;55.932;2023-04-24T07:57:02;11.00;;;1.52;;
70729;SDS011;58315;53.336;55.932;2023-04-24T07:59:28;5.28;;;1.70;;
70729;SDS011;58315;53.336;55.932;2023-04-24T08:01:54;6.78;;;1.38;;
70729;SDS011;58315;53.336;55.932;2023-04-24T08:04:21;2.58;;;1.33;;
70729;SDS011;58315;53.336;55.932;2023-04-24T08:06:47;3.33;;;1.35;;
70729;SDS011;58315;53.336;55.932;2023-04-24T08:09:13;12.45;;;1.83;;
70729;SDS011;58315;53.336;55.932;2023-04-24T08:11:39;4.20;;;1.30;;
70729;SDS011;58315;53.336;55.932;2023-04-24T08:14:06;9.05;;;1.90;;
70729;SDS011;58315;53.336;55.932;2023-04-24T08:16:32;2.95;;;1.40;;
70729;SDS011;58315;53.336;55.932;2023-04-24T08:18:59;4.15;;;1.38;;
70729;SDS011;58315;53.336;55.932;2023-04-24T08:21:24;2.05;;;1.20;;
70729;SDS011;58315;53.336;55.932;2023-04-24T08:23:52;13.38;;;1.52;;
70729;SDS011;58315;53.336;55.932;2023-04-24T08:26:18;6.78;;;1.48;;
70729;SDS011;58315;53.336;55.932;2023-04-24T08:28:44;7.88;;;1.75;;
70729;SDS011;58315;53.336;55.932;2023-04-24T08:31:11;14.93;;;1.58;;
70729;SDS011;58315;53.336;55.932;2023-04-24T08:33:37;5.75;;;1.33;;
70729;SDS011;58315;53.336;55.932;2023-04-24T08:36:04;9.35;;;1.60;;
70729;SDS011;58315;53.336;55.932;2023-04-24T08:38:30;6.40;;;1.30;;
70729;SDS011;58315;53.336;55.932;2023-04-24T08:40:58;6.50;;;1.30;;
70729;SDS011;58315;53.336;55.932;2023-04-24T08:43:25;2.15;;;1.00;;
70729;SDS011;58315;53.336;55.932;2023-04-24T08:45:52;2.40;;;1.20;;
70729;SDS011;58315;53.336;55.932;2023-04-24T08:48:22;2.05;;;1.17;;
70729;SDS011;58315;53.336;55.932;2023-04-24T08:50:50;4.38;;;1.58;;
70729;SDS011;58315;53.336;55.932;2023-04-24T08:53:17;16.17;;;1.63;;
70729;SDS011;58315;53.336;55.932;2023-04-24T08:55:45;2.92;;;1.60;;
70729;SDS011;58315;53.336;55.932;2023-04-24T08:58:16;4.13;;;1.40;;
70729;SDS011;58315;53.336;55.932;2023-04-24T09:00:43;4.82;;;1.42;;
70729;SDS011;58315;53.336;55.932;2023-04-24T09:03:16;13.02;;;1.70;;
70729;SDS011;58315;53.336;55.932;2023-04-24T09:05:44;4.90;;;1.55;;
70729;SDS011;58315;53.336;55.932;2023-04-24T09:08:12;4.57;;;2.20;;
70729;SDS011;58315;53.336;55.932;2023-04-24T09:10:40;3.47;;;1.73;;
70729;SDS011;58315;53.336;55.932;2023-04-24T09:13:06;2.60;;;1.20;;
70729;SDS011;58315;53.336;55.932;2023-04-24T09:15:35;3.13;;;1.30;;
70729;SDS011;58315;53.336;55.932;2023-04-24T09:18:02;14.05;;;1.30;;
70729;SDS011;58315;53.336;55.932;2023-04-24T09:20:28;7.20;;;1.17;;
70729;SDS011;58315;53.336;55.932;2023-04-24T09:22:54;7.15;;;1.48;;
70729;SDS011;58315;53.336;55.932;2023-04-24T09:25:23;5.18;;;1.92;;
70729;SDS011;58315;53.336;55.932;2023-04-24T09:27:59;8.77;;;1.88;;
70729;SDS011;58315;53.336;55.932;2023-04-24T09:30:27;4.50;;;1.20;;
70729;SDS011;58315;53.336;55.932;2023-04-24T09:33:09;7.25;;;1.60;;
70729;SDS011;58315;53.336;55.932;2023-04-24T09:35:36;13.02;;;1.58;;
70729;SDS011;58315;53.336;55.932;2023-04-24T09:38:02;10.25;;;1.92;;
70729;SDS011;58315;53.336;55.932;2023-04-24T09:40:28;6.40;;;1.52;;
70729;SDS011;58315;53.336;55.932;2023-04-24T09:42:57;6.82;;;1.25;;
70729;SDS011;58315;53.336;55.932;2023-04-24T09:45:36;3.33;;;1.52;;
70729;SDS011;58315;53.336;55.932;2023-04-24T09:48:03;5.63;;;1.30;;
70729;SDS011;58315;53.336;55.932;2023-04-24T09:50:30;4.15;;;1.10;;
70729;SDS011;58315;53.336;55.932;2023-04-24T09:53:04;5.45;;;1.30;;
70729;SDS011;58315;53.336;55.932;2023-04-24T09:55:36;3.75;;;1.55;;
70729;SDS011;58315;53.336;55.932;2023-04-24T09:58:07;8.68;;;1.50;;
70729;SDS011;58315;53.336;55.932;2023-04-24T10:00:33;3.35;;;1.30;;
70729;SDS011;58315;53.336;55.932;2023-04-24T10:03:03;3.15;;;1.50;;
70729;SDS011;58315;53.336;55.932;2023-04-24T10:05:32;5.32;;;1.52;;
70729;SDS011;58315;53.336;55.932;2023-04-24T10:08:01;2.72;;;1.35;;
70729;SDS011;58315;53.336;55.932;2023-04-24T10:10:31;3.70;;;0.93;;
70729;SDS011;58315;53.336;55.932;2023-04-24T10:12:59;11.45;;;1.20;;
70729;SDS011;58315;53.336;55.932;2023-04-24T10:15:27;14.40;;;1.80;;
70729;SDS011;58315;53.336;55.932;2023-04-24T10:17:57;2.67;;;1.25;;
70729;SDS011;58315;53.336;55.932;2023-04-24T10:20:25;11.07;;;1.65;;
70729;SDS011;58315;53.336;55.932;2023-04-24T10:22:56;9.32;;;1.30;;
70729;SDS011;58315;53.336;55.932;2023-04-24T10:25:27;6.28;;;1.52;;
70729;SDS011;58315;53.336;55.932;2023-04-24T10:27:55;10.07;;;2.90;;
70729;SDS011;58315;53.336;55.932;2023-04-24T10:30:29;16.98;;;2.78;;
70729;SDS011;58315;53.336;55.932;2023-04-24T10:33:04;9.32;;;1.50;;
70729;SDS011;58315;53.336;55.932;2023-04-24T10:35:36;2.67;;;1.02;;
70729;SDS011;58315;53.336;55.932;2023-04-24T10:38:11;2.58;;;1.27;;
70729;SDS011;58315;53.336;55.932;2023-04-24T10:40:39;5.82;;;1.80;;
70729;SDS011;58315;53.336;55.932;2023-04-24T10:43:05;4.00;;;1.50;;
70729;SDS011;58315;53.336;55.932;2023-04-24T10:45:34;17.10;;;1.63;;
70729;SDS011;58315;53.336;55.932;2023-04-24T10:48:04;2.78;;;1.42;;
70729;SDS011;58315;53.336;55.932;2023-04-24T10:50:44;17.02;;;1.73;;
70729;SDS011;58315;53.336;55.932;2023-04-24T10:53:17;5.05;;;1.27;;
70729;SDS011;58315;53.336;55.932;2023-04-24T10:55:46;16.77;;;1.88;;
70729;SDS011;58315;53.336;55.932;2023-04-24T10:58:14;2.90;;;1.40;;
70729;SDS011;58315;53.336;55.932;2023-04-24T11:00:42;3.75;;;1.52;;
70729;SDS011;58315;53.336;55.932;2023-04-24T11:03:26;3.33;;;1.30;;
70729;SDS011;58315;53.336;55.932;2023-04-24T11:06:04;3.40;;;1.30;;
70729;SDS011;58315;53.336;55.932;2023-04-24T11:08:37;3.85;;;1.70;;
70729;SDS011;58315;53.336;55.932;2023-04-24T11:11:08;2.78;;;1.20;;
70729;SDS011;58315;53.336;55.932;2023-04-24T11:16:28;3.50;;;1.40;;
70729;SDS011;58315;53.336;55.932;2023-04-24T11:19:07;3.40;;;1.50;;
70729;SDS011;58315;53.336;55.932;2023-04-24T11:21:40;9.15;;;1.77;;
70729;SDS011;58315;53.336;55.932;2023-04-24T11:24:38;7.07;;;1.73;;
70729;SDS011;58315;53.336;55.932;2023-04-24T11:27:14;11.50;;;2.15;;
70729;SDS011;58315;53.336;55.932;2023-04-24T11:34:53;8.60;;;1.58;;
70729;SDS011;58315;53.336;55.932;2023-04-24T11:37:19;4.07;;;1.73;;
70729;SDS011;58315;53.336;55.932;2023-04-24T11:39:45;5.38;;;1.60;;
70729;SDS011;58315;53.336;55.932;2023-04-24T11:42:14;5.57;;;1.80;;
70729;SDS011;58315;53.336;55.932;2023-04-24T11:44:41;11.83;;;1.70;;
70729;SDS011;58315;53.336;55.932;2023-04-24T11:47:08;6.78;;;1.40;;
70729;SDS011;58315;53.336;55.932;2023-04-24T11:49:37;3.45;;;1.70;;
70729;SDS011;58315;53.336;55.932;2023-04-24T11:52:04;13.77;;;1.67;;
70729;SDS011;58315;53.336;55.932;2023-04-24T11:54:30;12.85;;;1.77;;
70729;SDS011;58315;53.336;55.932;2023-04-24T11:56:56;5.38;;;1.80;;
70729;SDS011;58315;53.336;55.932;2023-04-24T11:59:23;3.47;;;1.63;;
70729;SDS011;58315;53.336;55.932;2023-04-24T12:01:49;3.47;;;1.55;;
70729;SDS011;58315;53.336;55.932;2023-04-24T12:04:16;13.40;;;2.00;;
70729;SDS011;58315;53.336;55.932;2023-04-24T12:06:58;7.53;;;1.80;;
70729;SDS011;58315;53.336;55.932;2023-04-24T12:09:25;2.67;;;1.52;;
70729;SDS011;58315;53.336;55.932;2023-04-24T12:11:55;2.35;;;1.48;;
70729;SDS011;58315;53.336;55.932;2023-04-24T12:14:25;2.80;;;1.80;;
70729;SDS011;58315;53.336;55.932;2023-04-24T12:16:51;4.85;;;1.80;;
70729;SDS011;58315;53.336;55.932;2023-04-24T12:19:17;4.78;;;2.00;;
70729;SDS011;58315;53.336;55.932;2023-04-24T12:22:03;7.55;;;1.67;;
70729;SDS011;58315;53.336;55.932;2023-04-24T12:24:31;4.88;;;1.80;;
70729;SDS011;58315;53.336;55.932;2023-04-24T12:26:57;7.90;;;1.90;;
70729;SDS011;58315;53.336;55.932;2023-04-24T12:29:24;3.58;;;1.80;;
70729;SDS011;58315;53.336;55.932;2023-04-24T12:31:51;5.43;;;1.50;;
70729;SDS011;58315;53.336;55.932;2023-04-24T12:34:18;4.32;;;1.77;;
70729;SDS011;58315;53.336;55.932;2023-04-24T12:36:46;9.98;;;1.60;;
70729;SDS011;58315;53.336;55.932;2023-04-24T12:39:16;6.57;;;1.80;;
70729;SDS011;58315;53.336;55.932;2023-04-24T12:41:58;7.50;;;1.98;;
70729;SDS011;58315;53.336;55.932;2023-04-24T12:44:31;3.17;;;1.65;;
70729;SDS011;58315;53.336;55.932;2023-04-24T12:47:02;4.40;;;1.77;;
70729;SDS011;58315;53.336;55.932;2023-04-24T12:49:31;3.83;;;1.73;;
70729;SDS011;58315;53.336;55.932;2023-04-24T12:51:57;5.28;;;1.92;;
70729;SDS011;58315;53.336;55.932;2023-04-24T12:54:24;16.52;;;2.13;;
70729;SDS011;58315;53.336;55.932;2023-04-24T12:56:50;4.90;;;1.83;;
70729;SDS011;58315;53.336;55.932;2023-04-24T12:59:16;31.30;;;1.90;;
70729;SDS011;58315;53.336;55.932;2023-04-24T13:01:42;6.45;;;1.58;;
70729;SDS011;58315;53.336;55.932;2023-04-24T13:04:08;10.30;;;1.95;;
70729;SDS011;58315;53.336;55.932;2023-04-24T13:06:34;3.08;;;1.75;;
70729;SDS011;58315;53.336;55.932;2023-04-24T13:09:00;20.73;;;1.90;;
70729;SDS011;58315;53.336;55.932;2023-04-24T13:11:26;35.42;;;2.05;;
70729;SDS011;58315;53.336;55.932;2023-04-24T13:13:52;3.65;;;1.80;;
70729;SDS011;58315;53.336;55.932;2023-04-24T13:16:18;9.52;;;1.80;;
70729;SDS011;58315;53.336;55.932;2023-04-24T13:18:44;6.05;;;2.08;;
70729;SDS011;58315;53.336;55.932;2023-04-24T13:21:10;3.63;;;1.65;;
70729;SDS011;58315;53.336;55.932;2023-04-24T13:23:36;4.22;;;1.83;;
70729;SDS011;58315;53.336;55.932;2023-04-24T13:26:03;11.15;;;1.90;;
70729;SDS011;58315;53.336;55.932;2023-04-24T13:28:29;4.18;;;1.73;;
70729;SDS011;58315;53.336;55.932;2023-04-24T13:30:55;4.25;;;1.77;;
70729;SDS011;58315;53.336;55.932;2023-04-24T13:33:21;8.45;;;2.20;;
70729;SDS011;58315;53.336;55.932;2023-04-24T13:35:47;8.68;;;1.95;;
70729;SDS011;58315;53.336;55.932;2023-04-24T13:38:13;6.30;;;2.08;;
70729;SDS011;58315;53.336;55.932;2023-04-24T13:40:39;10.40;;;2.10;;
70729;SDS011;58315;53.336;55.932;2023-04-24T13:43:05;26.70;;;2.63;;
70729;SDS011;58315;53.336;55.932;2023-04-24T13:45:31;7.82;;;1.73;;
70729;SDS011;58315;53.336;55.932;2023-04-24T13:47:58;3.67;;;1.88;;
70729;SDS011;58315;53.336;55.932;2023-04-24T13:50:24;9.75;;;4.55;;
70729;SDS011;58315;53.336;55.932;2023-04-24T13:52:50;13.40;;;5.43;;
70729;SDS011;58315;53.336;55.932;2023-04-24T13:55:16;13.57;;;2.47;;
70729;SDS011;58315;53.336;55.932;2023-04-24T13:57:42;6.22;;;2.05;;
70729;SDS011;58315;53.336;55.932;2023-04-24T14:00:08;10.68;;;2.17;;
70729;SDS011;58315;53.336;55.932;2023-04-24T14:02:36;3.80;;;2.10;;
70729;SDS011;58315;53.336;55.932;2023-04-24T14:05:02;9.77;;;1.92;;
70729;SDS011;58315;53.336;55.932;2023-04-24T14:07:32;5.28;;;2.13;;
70729;SDS011;58315;53.336;55.932;2023-04-24T14:09:58;9.75;;;2.33;;
70729;SDS011;58315;53.336;55.932;2023-04-24T14:12:24;5.78;;;2.28;;
70729;SDS011;58315;53.336;55.932;2023-04-24T14:14:51;8.35;;;1.90;;
70729;SDS011;58315;53.336;55.932;2023-04-24T14:17:17;5.63;;;2.30;;
70729;SDS011;58315;53.336;55.932;2023-04-24T14:19:43;6.85;;;2.38;;
70729;SDS011;58315;53.336;55.932;2023-04-24T14:22:09;14.45;;;2.20;;
70729;SDS011;58315;53.336;55.932;2023-04-24T14:24:36;3.97;;;1.95;;
70729;SDS011;58315;53.336;55.932;2023-04-24T14:27:04;6.40;;;2.20;;
70729;SDS011;58315;53.336;55.932;2023-04-24T14:29:31;3.38;;;1.85;;
70729;SDS011;58315;53.336;55.932;2023-04-24T14:31:57;3.10;;;1.70;;
70729;SDS011;58315;53.336;55.932;2023-04-24T14:34:22;14.05;;;2.17;;
70729;SDS011;58315;53.336;55.932;2023-04-24T14:36:49;5.50;;;1.85;;
70729;SDS011;58315;53.336;55.932;2023-04-24T14:39:15;4.90;;;2.22;;
70729;SDS011;58315;53.336;55.932;2023-04-24T14:41:41;5.30;;;1.88;;
70729;SDS011;58315;53.336;55.932;2023-04-24T14:44:07;9.30;;;2.30;;